sensor_id;sensor_type;location;lat;lon;timestamp;pressure;altitude;pressure_sealevel;temperature;humidity
13011;BME280;6786;57.632;11.962;2022-07-21T00:00:21;100879.94;;;22.37;63.46
13011;BME280;6786;57.632;11.962;2022-07-21T00:02:51;100868.31;;;22.36;63.88
13011;BME280;6786;57.632;11.962;2022-07-21T00:05:20;100877.22;;;22.37;63.65
13011;BME280;6786;57.632;11.962;2022-07-21T00:07:49;100872.84;;;22.36;63.88
13011;BME280;6786;57.632;11.962;2022-07-21T00:10:18;100851.69;;;22.23;63.46
13011;BME280;6786;57.632;11.962;2022-07-21T00:12:47;100878.25;;;22.36;63.55
13011;BME280;6786;57.632;11.962;2022-07-21T00:15:17;100880.78;;;22.37;63.43
13011;BME280;6786;57.632;11.962;2022-07-21T00:17:46;100886.16;;;22.37;63.44
13011;BME280;6786;57.632;11.962;2022-07-21T00:20:16;100878.53;;;22.33;63.76
13011;BME280;6786;57.632;11.962;2022-07-21T00:22:45;100896.09;;;22.37;63.83
13011;BME280;6786;57.632;11.962;2022-07-21T00:25:14;100882.25;;;22.32;63.41
13011;BME280;6786;57.632;11.962;2022-07-21T00:27:44;100891.56;;;22.37;63.47
13011;BME280;6786;57.632;11.962;2022-07-21T00:30:13;100896.09;;;22.37;63.51
13011;BME280;6786;57.632;11.962;2022-07-21T00:32:42;100886.03;;;22.39;63.87
13011;BME280;6786;57.632;11.962;2022-07-21T00:35:11;100883.31;;;22.39;63.87
13011;BME280;6786;57.632;11.962;2022-07-21T00:37:41;100882.47;;;22.38;63.90
13011;BME280;6786;57.632;11.962;2022-07-21T00:40:11;100860.72;;;22.32;63.61
13011;BME280;6786;57.632;11.962;2022-07-21T00:42:42;100878.94;;;22.38;63.79
13011;BME280;6786;57.632;11.962;2022-07-21T00:45:11;100866.47;;;22.37;63.80
13011;BME280;6786;57.632;11.962;2022-07-21T00:47:41;100865.47;;;22.38;63.69
13011;BME280;6786;57.632;11.962;2022-07-21T00:50:14;100865.47;;;22.38;63.69
13011;BME280;6786;57.632;11.962;2022-07-21T00:52:46;100862.94;;;22.36;63.74
13011;BME280;6786;57.632;11.962;2022-07-21T00:55:16;100856.69;;;22.36;63.68
13011;BME280;6786;57.632;11.962;2022-07-21T00:57:45;100862.09;;;22.36;63.68
13011;BME280;6786;57.632;11.962;2022-07-21T01:00:16;100822.81;;;22.16;63.89
13011;BME280;6786;57.632;11.962;2022-07-21T01:02:48;100851.63;;;22.33;63.77
13011;BME280;6786;57.632;11.962;2022-07-21T01:05:16;100851.31;;;22.36;63.93
13011;BME280;6786;57.632;11.962;2022-07-21T01:07:49;100847.91;;;22.34;63.95
13011;BME280;6786;57.632;11.962;2022-07-21T01:10:18;100856.69;;;22.36;63.91
13011;BME280;6786;57.632;11.962;2022-07-21T01:12:47;100856.53;;;22.37;63.80
13011;BME280;6786;57.632;11.962;2022-07-21T01:15:17;100855.00;;;22.35;63.71
13011;BME280;6786;57.632;11.962;2022-07-21T01:17:45;100847.59;;;22.37;63.92
13011;BME280;6786;57.632;11.962;2022-07-21T01:20:16;100854.72;;;22.38;63.89
13011;BME280;6786;57.632;11.962;2022-07-21T01:22:47;100849.31;;;22.38;63.88
13011;BME280;6786;57.632;11.962;2022-07-21T01:25:15;100857.00;;;22.33;63.55
13011;BME280;6786;57.632;11.962;2022-07-21T01:27:44;100853.31;;;22.34;63.56
13011;BME280;6786;57.632;11.962;2022-07-21T01:30:13;100856.00;;;22.34;63.99
13011;BME280;6786;57.632;11.962;2022-07-21T01:32:42;100862.09;;;22.36;63.70
13011;BME280;6786;57.632;11.962;2022-07-21T01:35:12;100860.41;;;22.35;63.88
13011;BME280;6786;57.632;11.962;2022-07-21T01:37:42;100856.69;;;22.36;63.53
13011;BME280;6786;57.632;11.962;2022-07-21T01:40:13;100849.63;;;22.35;63.66
13011;BME280;6786;57.632;11.962;2022-07-21T01:42:59;100849.63;;;22.35;63.96
13011;BME280;6786;57.632;11.962;2022-07-21T01:45:27;100856.00;;;22.34;63.72
13011;BME280;6786;57.632;11.962;2022-07-21T01:47:56;100851.31;;;22.36;63.52
13011;BME280;6786;57.632;11.962;2022-07-21T01:50:25;100846.78;;;22.36;63.45
13011;BME280;6786;57.632;11.962;2022-07-21T01:52:55;100842.38;;;22.35;63.65
13011;BME280;6786;57.632;11.962;2022-07-21T01:55:25;100842.53;;;22.34;63.87
13011;BME280;6786;57.632;11.962;2022-07-21T01:57:55;100835.16;;;22.36;63.54
13011;BME280;6786;57.632;11.962;2022-07-21T02:00:23;100842.22;;;22.37;63.90
13011;BME280;6786;57.632;11.962;2022-07-21T02:02:52;100841.41;;;22.36;63.75
13011;BME280;6786;57.632;11.962;2022-07-21T02:05:20;100837.84;;;22.36;63.93
13011;BME280;6786;57.632;11.962;2022-07-21T02:07:49;100837.13;;;22.34;63.66
13011;BME280;6786;57.632;11.962;2022-07-21T02:10:17;100837.13;;;22.34;63.72
13011;BME280;6786;57.632;11.962;2022-07-21T02:12:47;100830.06;;;22.33;63.76
13011;BME280;6786;57.632;11.962;2022-07-21T02:15:15;100838.84;;;22.35;63.66
13011;BME280;6786;57.632;11.962;2022-07-21T02:17:43;100838.84;;;22.35;63.56
13011;BME280;6786;57.632;11.962;2022-07-21T02:20:11;100831.59;;;22.35;63.70
13011;BME280;6786;57.632;11.962;2022-07-21T02:22:39;100835.16;;;22.36;63.53
13011;BME280;6786;57.632;11.962;2022-07-21T02:25:12;100836.84;;;22.37;63.50
13011;BME280;6786;57.632;11.962;2022-07-21T02:27:40;100838.56;;;22.38;63.59
13011;BME280;6786;57.632;11.962;2022-07-21T02:30:11;100824.38;;;22.36;63.58
13011;BME280;6786;57.632;11.962;2022-07-21T02:32:39;100808.84;;;22.30;63.86
13011;BME280;6786;57.632;11.962;2022-07-21T02:35:08;100816.91;;;22.30;63.60
13011;BME280;6786;57.632;11.962;2022-07-21T02:37:36;100808.53;;;22.33;63.71
13011;BME280;6786;57.632;11.962;2022-07-21T02:40:06;100780.59;;;22.16;63.90
13011;BME280;6786;57.632;11.962;2022-07-21T02:42:34;100804.81;;;22.34;64.00
13011;BME280;6786;57.632;11.962;2022-07-21T02:45:05;100797.59;;;22.34;63.90
13011;BME280;6786;57.632;11.962;2022-07-21T02:47:47;100795.78;;;22.35;63.86
13011;BME280;6786;57.632;11.962;2022-07-21T02:50:15;100795.78;;;22.35;63.74
13011;BME280;6786;57.632;11.962;2022-07-21T02:52:44;100769.69;;;22.18;63.64
13011;BME280;6786;57.632;11.962;2022-07-21T02:55:12;100801.16;;;22.35;63.57
13011;BME280;6786;57.632;11.962;2022-07-21T02:57:39;100801.16;;;22.35;63.74
13011;BME280;6786;57.632;11.962;2022-07-21T03:00:09;100801.16;;;22.35;63.80
13011;BME280;6786;57.632;11.962;2022-07-21T03:02:39;100789.53;;;22.34;63.87
13011;BME280;6786;57.632;11.962;2022-07-21T03:05:08;100786.69;;;22.36;63.61
13011;BME280;6786;57.632;11.962;2022-07-21T03:07:36;100785.81;;;22.35;63.71
13011;BME280;6786;57.632;11.962;2022-07-21T03:10:05;100785.81;;;22.35;63.95
13011;BME280;6786;57.632;11.962;2022-07-21T03:12:33;100779.63;;;22.35;63.97
13011;BME280;6786;57.632;11.962;2022-07-21T03:15:01;100762.97;;;22.22;63.92
13011;BME280;6786;57.632;11.962;2022-07-21T03:17:29;100782.47;;;22.33;63.91
13011;BME280;6786;57.632;11.962;2022-07-21T03:19:59;100777.91;;;22.34;63.49
13011;BME280;6786;57.632;11.962;2022-07-21T03:22:27;100763.75;;;22.32;64.01
13011;BME280;6786;57.632;11.962;2022-07-21T03:24:55;100772.50;;;22.34;63.88
13011;BME280;6786;57.632;11.962;2022-07-21T03:27:23;100777.91;;;22.34;63.98
13011;BME280;6786;57.632;11.962;2022-07-21T03:29:53;100775.06;;;22.35;63.80
13011;BME280;6786;57.632;11.962;2022-07-21T03:32:21;100769.81;;;22.34;63.58
13011;BME280;6786;57.632;11.962;2022-07-21T03:34:49;100768.84;;;22.35;63.83
13011;BME280;6786;57.632;11.962;2022-07-21T03:37:18;100775.91;;;22.36;63.63
13011;BME280;6786;57.632;11.962;2022-07-21T03:39:46;100768.13;;;22.33;63.70
13011;BME280;6786;57.632;11.962;2022-07-21T03:42:14;100773.22;;;22.36;63.81
13011;BME280;6786;57.632;11.962;2022-07-21T03:44:42;100771.38;;;22.36;63.68
13011;BME280;6786;57.632;11.962;2022-07-21T03:47:10;100770.53;;;22.36;63.72
13011;BME280;6786;57.632;11.962;2022-07-21T03:49:39;100769.97;;;22.32;63.82
13011;BME280;6786;57.632;11.962;2022-07-21T03:52:07;100766.16;;;22.35;63.73
13011;BME280;6786;57.632;11.962;2022-07-21T03:54:36;100770.53;;;22.36;63.73
13011;BME280;6786;57.632;11.962;2022-07-21T03:57:05;100768.00;;;22.34;64.15
13011;BME280;6786;57.632;11.962;2022-07-21T03:59:33;100767.13;;;22.34;63.75
13011;BME280;6786;57.632;11.962;2022-07-21T04:02:02;100749.38;;;22.23;64.00
13011;BME280;6786;57.632;11.962;2022-07-21T04:04:30;100763.47;;;22.35;63.71
13011;BME280;6786;57.632;11.962;2022-07-21T04:06:58;100771.53;;;22.35;63.79
13011;BME280;6786;57.632;11.962;2022-07-21T04:09:27;100765.28;;;22.34;64.03
13011;BME280;6786;57.632;11.962;2022-07-21T04:11:56;100767.13;;;22.34;63.82
13011;BME280;6786;57.632;11.962;2022-07-21T04:14:24;100765.44;;;22.33;63.66
13011;BME280;6786;57.632;11.962;2022-07-21T04:16:52;100773.38;;;22.34;63.71
13011;BME280;6786;57.632;11.962;2022-07-21T04:19:20;100768.84;;;22.35;63.66
13011;BME280;6786;57.632;11.962;2022-07-21T04:21:49;100762.75;;;22.33;63.81
13011;BME280;6786;57.632;11.962;2022-07-21T04:24:17;100769.97;;;22.32;64.01
13011;BME280;6786;57.632;11.962;2022-07-21T04:26:45;100761.75;;;22.34;64.25
13011;BME280;6786;57.632;11.962;2022-07-21T04:29:15;100763.47;;;22.35;64.06
13011;BME280;6786;57.632;11.962;2022-07-21T04:31:42;100765.28;;;22.34;63.88
13011;BME280;6786;57.632;11.962;2022-07-21T04:34:10;100771.53;;;22.35;63.69
13011;BME280;6786;57.632;11.962;2022-07-21T04:36:38;100776.91;;;22.35;63.96
13011;BME280;6786;57.632;11.962;2022-07-21T04:39:06;100761.44;;;22.37;63.66
13011;BME280;6786;57.632;11.962;2022-07-21T04:41:35;100751.81;;;22.34;64.05
13011;BME280;6786;57.632;11.962;2022-07-21T04:44:03;100750.81;;;22.35;63.78
13011;BME280;6786;57.632;11.962;2022-07-21T04:46:32;100750.66;;;22.37;64.16
13011;BME280;6786;57.632;11.962;2022-07-21T04:49:00;100756.03;;;22.37;63.75
13011;BME280;6786;57.632;11.962;2022-07-21T04:51:28;100754.69;;;22.33;63.77
13011;BME280;6786;57.632;11.962;2022-07-21T04:53:56;100757.91;;;22.36;63.72
13011;BME280;6786;57.632;11.962;2022-07-21T04:56:24;100763.31;;;22.36;64.09
13011;BME280;6786;57.632;11.962;2022-07-21T04:58:52;100764.13;;;22.37;63.74
13011;BME280;6786;57.632;11.962;2022-07-21T05:01:21;100765.13;;;22.36;64.00
13011;BME280;6786;57.632;11.962;2022-07-21T05:03:51;100761.44;;;22.37;63.84
13011;BME280;6786;57.632;11.962;2022-07-21T05:06:19;100758.06;;;22.35;64.05
13011;BME280;6786;57.632;11.962;2022-07-21T05:08:52;100754.38;;;22.36;64.09
13011;BME280;6786;57.632;11.962;2022-07-21T05:11:21;100764.28;;;22.35;64.09
13011;BME280;6786;57.632;11.962;2022-07-21T05:13:49;100763.47;;;22.35;64.01
13011;BME280;6786;57.632;11.962;2022-07-21T05:16:19;100756.19;;;22.35;63.88
13011;BME280;6786;57.632;11.962;2022-07-21T05:18:47;100764.28;;;22.35;63.93
13011;BME280;6786;57.632;11.962;2022-07-21T05:21:17;100758.06;;;22.35;63.89
13011;BME280;6786;57.632;11.962;2022-07-21T05:23:45;100727.63;;;22.17;63.76
13011;BME280;6786;57.632;11.962;2022-07-21T05:26:13;100754.38;;;22.36;63.84
13011;BME280;6786;57.632;11.962;2022-07-21T05:28:41;100758.91;;;22.35;63.93
13011;BME280;6786;57.632;11.962;2022-07-21T05:31:10;100752.69;;;22.35;63.82
13011;BME280;6786;57.632;11.962;2022-07-21T05:33:38;100750.00;;;22.35;63.67
13011;BME280;6786;57.632;11.962;2022-07-21T05:36:06;100750.81;;;22.35;63.72
13011;BME280;6786;57.632;11.962;2022-07-21T05:38:36;100754.38;;;22.36;64.10
13011;BME280;6786;57.632;11.962;2022-07-21T05:41:04;100756.03;;;22.37;64.00
13011;BME280;6786;57.632;11.962;2022-07-21T05:43:32;100754.38;;;22.36;63.91
13011;BME280;6786;57.632;11.962;2022-07-21T05:46:00;100758.75;;;22.37;64.17
13011;BME280;6786;57.632;11.962;2022-07-21T05:48:28;100699.16;;;21.97;63.67
13011;BME280;6786;57.632;11.962;2022-07-21T05:50:56;100754.38;;;22.36;64.11
13011;BME280;6786;57.632;11.962;2022-07-21T05:53:24;100750.66;;;22.37;64.07
13011;BME280;6786;57.632;11.962;2022-07-21T05:55:54;100745.28;;;22.37;63.84
13011;BME280;6786;57.632;11.962;2022-07-21T05:58:22;100745.97;;;22.39;63.95
13011;BME280;6786;57.632;11.962;2022-07-21T06:00:51;100734.66;;;22.35;63.91
13011;BME280;6786;57.632;11.962;2022-07-21T06:03:34;100726.88;;;22.32;64.05
13011;BME280;6786;57.632;11.962;2022-07-21T06:06:02;100737.03;;;22.38;63.78
13011;BME280;6786;57.632;11.962;2022-07-21T06:08:30;100736.22;;;22.38;63.77
13011;BME280;6786;57.632;11.962;2022-07-21T06:10:59;100737.91;;;22.39;64.04
13011;BME280;6786;57.632;11.962;2022-07-21T06:13:27;100743.28;;;22.39;63.80
13011;BME280;6786;57.632;11.962;2022-07-21T06:15:56;100741.25;;;22.41;64.28
13011;BME280;6786;57.632;11.962;2022-07-21T06:18:24;100733.38;;;22.39;63.88
13011;BME280;6786;57.632;11.962;2022-07-21T06:20:52;100727.13;;;22.39;64.02
13011;BME280;6786;57.632;11.962;2022-07-21T06:23:20;100729.81;;;22.39;64.13
13011;BME280;6786;57.632;11.962;2022-07-21T06:25:50;100734.19;;;22.40;64.19
13011;BME280;6786;57.632;11.962;2022-07-21T06:28:20;100737.91;;;22.39;64.34
13011;BME280;6786;57.632;11.962;2022-07-21T06:30:48;100736.22;;;22.38;64.05
13011;BME280;6786;57.632;11.962;2022-07-21T06:33:17;100729.13;;;22.37;64.09
13011;BME280;6786;57.632;11.962;2022-07-21T06:35:45;100730.97;;;22.36;64.24
13011;BME280;6786;57.632;11.962;2022-07-21T06:38:13;100722.03;;;22.36;64.43
13011;BME280;6786;57.632;11.962;2022-07-21T06:40:41;100732.50;;;22.39;64.06
13011;BME280;6786;57.632;11.962;2022-07-21T06:43:09;100737.03;;;22.38;64.10
13011;BME280;6786;57.632;11.962;2022-07-21T06:45:56;100736.22;;;22.38;64.08
13011;BME280;6786;57.632;11.962;2022-07-21T06:48:25;100736.38;;;22.36;64.52
13011;BME280;6786;57.632;11.962;2022-07-21T06:50:54;100737.03;;;22.38;64.16
13011;BME280;6786;57.632;11.962;2022-07-21T06:53:23;100734.19;;;22.40;64.21
13011;BME280;6786;57.632;11.962;2022-07-21T06:55:52;100722.75;;;22.38;64.27
13011;BME280;6786;57.632;11.962;2022-07-21T06:58:29;100733.38;;;22.39;64.58
13011;BME280;6786;57.632;11.962;2022-07-21T07:01:07;100720.06;;;22.38;64.66
13011;BME280;6786;57.632;11.962;2022-07-21T07:03:36;100725.44;;;22.38;64.23
13011;BME280;6786;57.632;11.962;2022-07-21T07:06:06;100729.81;;;22.39;64.24
13011;BME280;6786;57.632;11.962;2022-07-21T07:08:34;100697.00;;;22.18;64.70
13011;BME280;6786;57.632;11.962;2022-07-21T07:11:10;100725.75;;;22.35;64.37
13011;BME280;6786;57.632;11.962;2022-07-21T07:13:38;100718.34;;;22.37;64.53
13011;BME280;6786;57.632;11.962;2022-07-21T07:16:25;100720.38;;;22.35;64.67
13011;BME280;6786;57.632;11.962;2022-07-21T07:18:53;100730.81;;;22.38;64.57
13011;BME280;6786;57.632;11.962;2022-07-21T07:21:22;100724.59;;;22.37;64.35
13011;BME280;6786;57.632;11.962;2022-07-21T07:23:50;100719.34;;;22.36;64.51
13011;BME280;6786;57.632;11.962;2022-07-21T07:26:18;100725.44;;;22.38;64.50
13011;BME280;6786;57.632;11.962;2022-07-21T07:28:46;100725.44;;;22.38;64.72
13011;BME280;6786;57.632;11.962;2022-07-21T07:31:15;100658.63;;;21.98;64.37
13011;BME280;6786;57.632;11.962;2022-07-21T07:33:44;100709.91;;;22.32;64.39
13011;BME280;6786;57.632;11.962;2022-07-21T07:36:12;100709.28;;;22.38;64.56
13011;BME280;6786;57.632;11.962;2022-07-21T07:38:41;100710.97;;;22.39;64.29
13011;BME280;6786;57.632;11.962;2022-07-21T07:41:09;100704.53;;;22.32;64.69
13011;BME280;6786;57.632;11.962;2022-07-21T07:43:37;100711.28;;;22.36;64.36
13011;BME280;6786;57.632;11.962;2022-07-21T07:46:05;100713.81;;;22.37;64.58
13011;BME280;6786;57.632;11.962;2022-07-21T07:48:34;100716.66;;;22.36;64.56
13011;BME280;6786;57.632;11.962;2022-07-21T07:51:04;100697.75;;;22.28;64.47
13011;BME280;6786;57.632;11.962;2022-07-21T07:53:32;100712.13;;;22.36;64.92
13011;BME280;6786;57.632;11.962;2022-07-21T07:56:00;100708.59;;;22.36;64.57
13011;BME280;6786;57.632;11.962;2022-07-21T07:58:28;100706.75;;;22.36;64.86
13011;BME280;6786;57.632;11.962;2022-07-21T08:00:57;100705.88;;;22.36;64.94
13011;BME280;6786;57.632;11.962;2022-07-21T08:03:35;100658.41;;;22.09;64.72
13011;BME280;6786;57.632;11.962;2022-07-21T08:06:05;100709.28;;;22.38;64.58
13011;BME280;6786;57.632;11.962;2022-07-21T08:08:34;100704.22;;;22.35;64.62
13011;BME280;6786;57.632;11.962;2022-07-21T08:11:02;100703.03;;;22.37;64.53
13011;BME280;6786;57.632;11.962;2022-07-21T08:13:30;100698.81;;;22.35;64.72
13011;BME280;6786;57.632;11.962;2022-07-21T08:15:58;100694.09;;;22.37;64.99
13011;BME280;6786;57.632;11.962;2022-07-21T08:18:26;100691.41;;;22.37;64.64
13011;BME280;6786;57.632;11.962;2022-07-21T08:20:54;100696.81;;;22.37;64.61
13011;BME280;6786;57.632;11.962;2022-07-21T08:23:24;100696.81;;;22.37;64.54
13011;BME280;6786;57.632;11.962;2022-07-21T08:25:52;100696.81;;;22.37;65.02
13011;BME280;6786;57.632;11.962;2022-07-21T08:28:20;100691.72;;;22.34;64.80
13011;BME280;6786;57.632;11.962;2022-07-21T08:30:49;100692.28;;;22.37;64.57
13011;BME280;6786;57.632;11.962;2022-07-21T08:33:17;100683.97;;;22.31;64.83
13011;BME280;6786;57.632;11.962;2022-07-21T08:35:45;100686.03;;;22.37;64.64
13011;BME280;6786;57.632;11.962;2022-07-21T08:38:13;100682.34;;;22.38;64.63
13011;BME280;6786;57.632;11.962;2022-07-21T08:40:44;100673.56;;;22.36;64.92
13011;BME280;6786;57.632;11.962;2022-07-21T08:43:14;100679.66;;;22.38;64.78
13011;BME280;6786;57.632;11.962;2022-07-21T08:45:42;100664.63;;;22.35;64.98
13011;BME280;6786;57.632;11.962;2022-07-21T08:48:11;100671.59;;;22.38;64.92
13011;BME280;6786;57.632;11.962;2022-07-21T08:50:41;100676.97;;;22.38;64.61
13011;BME280;6786;57.632;11.962;2022-07-21T08:53:10;100662.81;;;22.36;65.14
13011;BME280;6786;57.632;11.962;2022-07-21T08:55:38;100676.97;;;22.38;64.89
13011;BME280;6786;57.632;11.962;2022-07-21T08:58:10;100662.50;;;22.39;64.99
13011;BME280;6786;57.632;11.962;2022-07-21T09:00:40;100663.50;;;22.38;65.05
13011;BME280;6786;57.632;11.962;2022-07-21T09:03:10;100666.19;;;22.38;64.65
13011;BME280;6786;57.632;11.962;2022-07-21T09:05:38;100665.34;;;22.37;65.08
13011;BME280;6786;57.632;11.962;2022-07-21T09:08:07;100660.81;;;22.38;64.73
13011;BME280;6786;57.632;11.962;2022-07-21T09:10:35;100659.09;;;22.37;65.04
13011;BME280;6786;57.632;11.962;2022-07-21T09:13:05;100585.78;;;21.92;65.03
13011;BME280;6786;57.632;11.962;2022-07-21T09:15:35;100645.28;;;22.32;64.75
13011;BME280;6786;57.632;11.962;2022-07-21T09:18:08;100649.34;;;22.36;64.86
13011;BME280;6786;57.632;11.962;2022-07-21T09:20:40;100653.72;;;22.37;64.86
13011;BME280;6786;57.632;11.962;2022-07-21T09:23:16;100642.94;;;22.37;64.86
13011;BME280;6786;57.632;11.962;2022-07-21T09:25:46;100639.25;;;22.38;65.10
13011;BME280;6786;57.632;11.962;2022-07-21T09:28:16;100639.59;;;22.35;65.13
13011;BME280;6786;57.632;11.962;2022-07-21T09:30:52;100655.28;;;22.39;65.10
13011;BME280;6786;57.632;11.962;2022-07-21T09:33:26;100651.72;;;22.39;65.32
13011;BME280;6786;57.632;11.962;2022-07-21T09:35:56;100655.44;;;22.38;64.96
13011;BME280;6786;57.632;11.962;2022-07-21T09:38:25;100654.56;;;22.37;65.24
13011;BME280;6786;57.632;11.962;2022-07-21T09:40:54;100623.28;;;22.19;65.11
13011;BME280;6786;57.632;11.962;2022-07-21T09:43:33;100658.13;;;22.38;65.01
13011;BME280;6786;57.632;11.962;2022-07-21T09:46:04;100659.09;;;22.37;65.09
13011;BME280;6786;57.632;11.962;2022-07-21T09:48:34;100660.81;;;22.38;65.31
13011;BME280;6786;57.632;11.962;2022-07-21T09:51:25;100654.88;;;22.34;65.38
13011;BME280;6786;57.632;11.962;2022-07-21T09:53:57;100660.81;;;22.38;65.43
13011;BME280;6786;57.632;11.962;2022-07-21T09:56:27;100660.81;;;22.38;65.57
13011;BME280;6786;57.632;11.962;2022-07-21T09:58:57;100659.72;;;22.31;65.17
13011;BME280;6786;57.632;11.962;2022-07-21T10:01:28;100675.97;;;22.39;65.21
13011;BME280;6786;57.632;11.962;2022-07-21T10:03:57;100662.50;;;22.39;65.28
13011;BME280;6786;57.632;11.962;2022-07-21T10:06:27;100667.88;;;22.39;65.56
13011;BME280;6786;57.632;11.962;2022-07-21T10:08:57;100668.19;;;22.36;65.50
13011;BME280;6786;57.632;11.962;2022-07-21T10:11:26;100661.13;;;22.35;65.36
13011;BME280;6786;57.632;11.962;2022-07-21T10:13:56;100660.81;;;22.38;65.69
13011;BME280;6786;57.632;11.962;2022-07-21T10:16:25;100659.09;;;22.37;65.43
13011;BME280;6786;57.632;11.962;2022-07-21T10:19:02;100655.75;;;22.35;65.60
13011;BME280;6786;57.632;11.962;2022-07-21T10:21:41;100646.66;;;22.36;65.96
13011;BME280;6786;57.632;11.962;2022-07-21T10:24:10;100638.72;;;22.34;65.65
13011;BME280;6786;57.632;11.962;2022-07-21T10:26:39;100641.25;;;22.36;65.70
13011;BME280;6786;57.632;11.962;2022-07-21T10:29:48;100641.25;;;22.36;66.19
13011;BME280;6786;57.632;11.962;2022-07-21T10:32:27;100635.88;;;22.36;66.06
13011;BME280;6786;57.632;11.962;2022-07-21T10:34:58;100630.50;;;22.36;65.87
13011;BME280;6786;57.632;11.962;2022-07-21T10:37:46;100629.13;;;22.32;65.94
13011;BME280;6786;57.632;11.962;2022-07-21T10:40:38;100636.19;;;22.33;65.95
13011;BME280;6786;57.632;11.962;2022-07-21T10:46:32;100618.03;;;22.35;66.16
13011;BME280;6786;57.632;11.962;2022-07-21T10:49:02;100615.34;;;22.35;66.08
13011;BME280;6786;57.632;11.962;2022-07-21T10:51:34;100608.94;;;22.36;65.77
13011;BME280;6786;57.632;11.962;2022-07-21T10:54:23;100602.72;;;22.35;66.32
13011;BME280;6786;57.632;11.962;2022-07-21T10:57:27;100594.47;;;22.37;66.12
13011;BME280;6786;57.632;11.962;2022-07-21T11:03:01;100596.50;;;22.35;66.13
13011;BME280;6786;57.632;11.962;2022-07-21T11:05:33;100592.78;;;22.36;66.08
13011;BME280;6786;57.632;11.962;2022-07-21T11:08:18;100598.19;;;22.36;66.26
13011;BME280;6786;57.632;11.962;2022-07-21T11:10:49;100598.19;;;22.36;65.91
13011;BME280;6786;57.632;11.962;2022-07-21T11:13:19;100587.41;;;22.36;66.25
13011;BME280;6786;57.632;11.962;2022-07-21T11:15:59;100602.72;;;22.35;66.56
13011;BME280;6786;57.632;11.962;2022-07-21T11:18:29;100553.63;;;22.16;66.24
13011;BME280;6786;57.632;11.962;2022-07-21T11:21:15;100586.72;;;22.34;66.34
13011;BME280;6786;57.632;11.962;2022-07-21T11:23:47;100578.63;;;22.34;66.14
13011;BME280;6786;57.632;11.962;2022-07-21T11:26:18;100578.63;;;22.34;66.16
13011;BME280;6786;57.632;11.962;2022-07-21T11:28:46;100586.56;;;22.35;66.13
13011;BME280;6786;57.632;11.962;2022-07-21T11:31:17;100576.63;;;22.36;66.63
13011;BME280;6786;57.632;11.962;2022-07-21T11:33:46;100582.03;;;22.36;66.36
13011;BME280;6786;57.632;11.962;2022-07-21T11:36:25;100576.63;;;22.36;66.70
13011;BME280;6786;57.632;11.962;2022-07-21T11:38:59;100586.22;;;22.38;66.32
13011;BME280;6786;57.632;11.962;2022-07-21T11:41:27;100587.09;;;22.39;66.50
13011;BME280;6786;57.632;11.962;2022-07-21T11:43:56;100583.38;;;22.40;66.54
13011;BME280;6786;57.632;11.962;2022-07-21T11:46:24;100583.38;;;22.40;66.49
13011;BME280;6786;57.632;11.962;2022-07-21T11:49:03;100572.59;;;22.40;66.56
13011;BME280;6786;57.632;11.962;2022-07-21T11:51:31;100579.66;;;22.41;66.22
13011;BME280;6786;57.632;11.962;2022-07-21T11:54:01;100582.56;;;22.39;66.41
13011;BME280;6786;57.632;11.962;2022-07-21T11:56:36;100568.06;;;22.40;66.62
13011;BME280;6786;57.632;11.962;2022-07-21T11:59:09;100557.72;;;22.28;66.31
13011;BME280;6786;57.632;11.962;2022-07-21T12:01:52;100569.91;;;22.40;66.59
13011;BME280;6786;57.632;11.962;2022-07-21T12:04:32;100579.66;;;22.41;66.57
13011;BME280;6786;57.632;11.962;2022-07-21T12:07:02;100565.53;;;22.39;66.53
13011;BME280;6786;57.632;11.962;2022-07-21T12:09:33;100546.97;;;22.28;66.47
13011;BME280;6786;57.632;11.962;2022-07-21T12:12:01;100549.00;;;22.34;66.56
13011;BME280;6786;57.632;11.962;2022-07-21T12:14:43;100568.91;;;22.41;66.90
13011;BME280;6786;57.632;11.962;2022-07-21T12:17:13;100577.16;;;22.39;66.77
13011;BME280;6786;57.632;11.962;2022-07-21T12:19:41;100578.00;;;22.40;67.00
13011;BME280;6786;57.632;11.962;2022-07-21T12:22:09;100569.91;;;22.40;66.54
13011;BME280;6786;57.632;11.962;2022-07-21T12:24:50;100567.91;;;22.42;66.76
13011;BME280;6786;57.632;11.962;2022-07-21T12:27:19;100574.28;;;22.41;66.91
13011;BME280;6786;57.632;11.962;2022-07-21T12:29:48;100569.75;;;22.41;66.98
13011;BME280;6786;57.632;11.962;2022-07-21T12:32:40;100566.91;;;22.43;67.31
13011;BME280;6786;57.632;11.962;2022-07-21T12:35:32;100552.06;;;22.39;67.37
13011;BME280;6786;57.632;11.962;2022-07-21T12:38:06;100544.00;;;22.39;66.98
13011;BME280;6786;57.632;11.962;2022-07-21T12:40:39;100540.44;;;22.38;67.08
13011;BME280;6786;57.632;11.962;2022-07-21T12:43:27;100560.16;;;22.39;66.99
13011;BME280;6786;57.632;11.962;2022-07-21T12:45:59;100562.16;;;22.37;66.80
13011;BME280;6786;57.632;11.962;2022-07-21T12:48:30;100551.06;;;22.40;66.84
13011;BME280;6786;57.632;11.962;2022-07-21T12:51:10;100547.72;;;22.38;67.05
13011;BME280;6786;57.632;11.962;2022-07-21T12:53:41;100548.38;;;22.40;67.31
13011;BME280;6786;57.632;11.962;2022-07-21T12:56:13;100556.44;;;22.40;67.13
13011;BME280;6786;57.632;11.962;2022-07-21T12:58:42;100547.34;;;22.41;67.33
13011;BME280;6786;57.632;11.962;2022-07-21T13:01:11;100547.34;;;22.41;67.25
13011;BME280;6786;57.632;11.962;2022-07-21T13:03:39;100542.81;;;22.41;67.21
13011;BME280;6786;57.632;11.962;2022-07-21T13:06:08;100538.28;;;22.42;67.26
13011;BME280;6786;57.632;11.962;2022-07-21T13:08:38;100546.38;;;22.42;67.00
13011;BME280;6786;57.632;11.962;2022-07-21T13:11:08;100542.97;;;22.40;66.99
13011;BME280;6786;57.632;11.962;2022-07-21T13:13:38;100542.16;;;22.39;67.08